Archival Weather

Chicago O'Hare International

Chicago, Illinois (KORD)

Report from: Sunday, November 19, 2023 4:51 AM CST
Current time: Monday, July 22, 2024 6:06 AM CDT

Current weather – Weather history – Daily summaries
Weather forecast

Temperature2.8°C (37.0°F)
Dew point-2.2°C (28.0°F)
Winds Calm
Visibility10 mi. (16.1 km)
Clouds Sky clear
Altimeter30.00 in.Hg (1016 mB)
Relative humidity70 %
Density altitude-1,505 ft. (-459 m)
Sea-level pressure101.6 kPa (1016 mB, 30.01 in.Hg)
Remarks Automated weather observing station with precipitation discriminator
Flight conditions Visual Meteorological Conditions
Raw dataKORD 191051Z 00000KT 10SM CLR 03/M02 A3000 RMK AO2 SLP163 T00281022
An error has occurred. This application may no longer respond until reloaded. Reload 🗙